METAR Data
IDs: Format: Raw Decoded Include TAF

Data at: 0202 UTC 01 Mar 2021

KSFY 010155Z AUTO 29010G16KT 10SM CLR 00/M01 A2996 RMK AO2